sensor_id;sensor_type;location;lat;lon;timestamp;temperature;humidity
6824;DHT22;58633;49.470;11.004;2024-03-06T00:00:46;10.20;72.50
6824;DHT22;58633;49.470;11.004;2024-03-06T00:03:12;10.00;72.20
6824;DHT22;58633;49.470;11.004;2024-03-06T00:05:38;10.20;72.20
6824;DHT22;58633;49.470;11.004;2024-03-06T00:08:03;10.10;72.30
6824;DHT22;58633;49.470;11.004;2024-03-06T00:10:29;10.10;72.40
6824;DHT22;58633;49.470;11.004;2024-03-06T00:12:55;10.20;72.40
6824;DHT22;58633;49.470;11.004;2024-03-06T00:15:20;10.30;72.70
6824;DHT22;58633;49.470;11.004;2024-03-06T00:17:46;10.10;72.60
6824;DHT22;58633;49.470;11.004;2024-03-06T00:20:12;10.10;72.60
6824;DHT22;58633;49.470;11.004;2024-03-06T00:22:37;13.00;75.40
6824;DHT22;58633;49.470;11.004;2024-03-06T00:25:03;10.00;72.60
6824;DHT22;58633;49.470;11.004;2024-03-06T00:27:29;10.20;72.80
6824;DHT22;58633;49.470;11.004;2024-03-06T00:29:54;10.10;72.60
6824;DHT22;58633;49.470;11.004;2024-03-06T00:32:20;10.20;72.80
6824;DHT22;58633;49.470;11.004;2024-03-06T00:34:45;11.70;74.30
6824;DHT22;58633;49.470;11.004;2024-03-06T00:37:11;10.00;72.60
6824;DHT22;58633;49.470;11.004;2024-03-06T00:39:37;10.20;72.80
6824;DHT22;58633;49.470;11.004;2024-03-06T00:42:05;10.10;73.40
6824;DHT22;58633;49.470;11.004;2024-03-06T00:44:31;10.10;72.80
6824;DHT22;58633;49.470;11.004;2024-03-06T00:46:56;10.10;72.80
6824;DHT22;58633;49.470;11.004;2024-03-06T00:49:22;10.60;73.20
6824;DHT22;58633;49.470;11.004;2024-03-06T00:51:47;12.60;75.30
6824;DHT22;58633;49.470;11.004;2024-03-06T00:54:13;10.00;72.70
6824;DHT22;58633;49.470;11.004;2024-03-06T00:56:39;10.00;72.70
6824;DHT22;58633;49.470;11.004;2024-03-06T00:59:05;10.10;72.90
6824;DHT22;58633;49.470;11.004;2024-03-06T01:01:30;10.10;72.90
6824;DHT22;58633;49.470;11.004;2024-03-06T01:03:56;10.10;73.00
6824;DHT22;58633;49.470;11.004;2024-03-06T01:06:21;10.10;73.10
6824;DHT22;58633;49.470;11.004;2024-03-06T01:08:47;10.00;72.90
6824;DHT22;58633;49.470;11.004;2024-03-06T01:11:13;10.00;73.00
6824;DHT22;58633;49.470;11.004;2024-03-06T01:13:40;10.20;73.00
6824;DHT22;58633;49.470;11.004;2024-03-06T01:16:06;10.00;72.70
6824;DHT22;58633;49.470;11.004;2024-03-06T01:18:32;10.00;72.90
6824;DHT22;58633;49.470;11.004;2024-03-06T01:20:58;10.10;72.90
6824;DHT22;58633;49.470;11.004;2024-03-06T01:23:23;10.20;73.00
6824;DHT22;58633;49.470;11.004;2024-03-06T01:25:49;10.50;73.40
6824;DHT22;58633;49.470;11.004;2024-03-06T01:28:14;10.10;72.90
6824;DHT22;58633;49.470;11.004;2024-03-06T01:30:40;10.00;72.90
6824;DHT22;58633;49.470;11.004;2024-03-06T01:33:05;10.10;72.90
6824;DHT22;58633;49.470;11.004;2024-03-06T01:35:31;10.10;72.90
6824;DHT22;58633;49.470;11.004;2024-03-06T01:37:57;10.10;72.70
6824;DHT22;58633;49.470;11.004;2024-03-06T01:40:23;10.00;72.80
6824;DHT22;58633;49.470;11.004;2024-03-06T01:42:49;10.00;72.80
6824;DHT22;58633;49.470;11.004;2024-03-06T01:45:15;10.00;72.70
6824;DHT22;58633;49.470;11.004;2024-03-06T01:47:40;10.00;72.90
6824;DHT22;58633;49.470;11.004;2024-03-06T01:50:06;9.90;74.00
6824;DHT22;58633;49.470;11.004;2024-03-06T01:52:35;10.00;73.00
6824;DHT22;58633;49.470;11.004;2024-03-06T01:55:01;12.30;75.50
6824;DHT22;58633;49.470;11.004;2024-03-06T01:57:27;9.90;74.20
6824;DHT22;58633;49.470;11.004;2024-03-06T01:59:53;10.00;73.40
6824;DHT22;58633;49.470;11.004;2024-03-06T02:02:19;9.90;74.20
6824;DHT22;58633;49.470;11.004;2024-03-06T02:04:45;10.00;73.20
6824;DHT22;58633;49.470;11.004;2024-03-06T02:07:11;10.00;73.40
6824;DHT22;58633;49.470;11.004;2024-03-06T02:09:38;9.90;74.30
6824;DHT22;58633;49.470;11.004;2024-03-06T02:12:05;9.90;74.40
6824;DHT22;58633;49.470;11.004;2024-03-06T02:14:30;10.00;73.50
6824;DHT22;58633;49.470;11.004;2024-03-06T02:16:56;11.20;74.60
6824;DHT22;58633;49.470;11.004;2024-03-06T02:19:21;10.10;73.40
6824;DHT22;58633;49.470;11.004;2024-03-06T02:21:47;9.90;74.30
6824;DHT22;58633;49.470;11.004;2024-03-06T02:24:13;10.00;73.20
6824;DHT22;58633;49.470;11.004;2024-03-06T02:26:39;10.00;73.20
6824;DHT22;58633;49.470;11.004;2024-03-06T02:29:06;12.40;75.60
6824;DHT22;58633;49.470;11.004;2024-03-06T02:31:31;9.90;74.30
6824;DHT22;58633;49.470;11.004;2024-03-06T02:33:58;9.90;74.40
6824;DHT22;58633;49.470;11.004;2024-03-06T02:36:24;9.90;74.60
6824;DHT22;58633;49.470;11.004;2024-03-06T02:38:50;9.90;74.60
6824;DHT22;58633;49.470;11.004;2024-03-06T02:41:15;10.00;73.50
6824;DHT22;58633;49.470;11.004;2024-03-06T02:43:41;9.80;74.40
6824;DHT22;58633;49.470;11.004;2024-03-06T02:46:08;9.90;74.60
6824;DHT22;58633;49.470;11.004;2024-03-06T02:48:33;10.00;73.50
6824;DHT22;58633;49.470;11.004;2024-03-06T02:50:59;9.80;74.50
6824;DHT22;58633;49.470;11.004;2024-03-06T02:53:25;10.10;73.70
6824;DHT22;58633;49.470;11.004;2024-03-06T02:55:51;10.00;73.60
6824;DHT22;58633;49.470;11.004;2024-03-06T02:58:16;11.20;75.00
6824;DHT22;58633;49.470;11.004;2024-03-06T03:00:43;9.80;74.70
6824;DHT22;58633;49.470;11.004;2024-03-06T03:03:09;9.90;74.90
6824;DHT22;58633;49.470;11.004;2024-03-06T03:05:35;9.90;74.90
6824;DHT22;58633;49.470;11.004;2024-03-06T03:08:01;9.90;75.20
6824;DHT22;58633;49.470;11.004;2024-03-06T03:10:26;9.70;75.00
6824;DHT22;58633;49.470;11.004;2024-03-06T03:12:53;9.90;75.10
6824;DHT22;58633;49.470;11.004;2024-03-06T03:15:19;11.00;75.20
6824;DHT22;58633;49.470;11.004;2024-03-06T03:17:46;9.90;75.30
6824;DHT22;58633;49.470;11.004;2024-03-06T03:20:11;9.90;75.30
6824;DHT22;58633;49.470;11.004;2024-03-06T03:22:38;10.20;74.50
6824;DHT22;58633;49.470;11.004;2024-03-06T03:25:07;9.90;75.20
6824;DHT22;58633;49.470;11.004;2024-03-06T03:27:33;9.90;75.20
6824;DHT22;58633;49.470;11.004;2024-03-06T03:29:59;12.10;76.40
6824;DHT22;58633;49.470;11.004;2024-03-06T03:32:25;9.60;75.10
6824;DHT22;58633;49.470;11.004;2024-03-06T03:34:50;9.80;75.40
6824;DHT22;58633;49.470;11.004;2024-03-06T03:37:16;9.70;75.30
6824;DHT22;58633;49.470;11.004;2024-03-06T03:39:43;9.90;75.80
6824;DHT22;58633;49.470;11.004;2024-03-06T03:42:09;9.70;75.80
6824;DHT22;58633;49.470;11.004;2024-03-06T03:44:34;9.70;75.60
6824;DHT22;58633;49.470;11.004;2024-03-06T03:47:00;9.70;75.60
6824;DHT22;58633;49.470;11.004;2024-03-06T03:49:25;9.60;75.50
6824;DHT22;58633;49.470;11.004;2024-03-06T03:51:51;9.70;75.90
6824;DHT22;58633;49.470;11.004;2024-03-06T03:54:17;9.70;75.90
6824;DHT22;58633;49.470;11.004;2024-03-06T03:56:42;9.70;76.00
6824;DHT22;58633;49.470;11.004;2024-03-06T03:59:08;9.70;76.10
6824;DHT22;58633;49.470;11.004;2024-03-06T04:01:33;9.80;76.00
6824;DHT22;58633;49.470;11.004;2024-03-06T04:03:59;9.70;75.90
6824;DHT22;58633;49.470;11.004;2024-03-06T04:06:25;10.30;75.40
6824;DHT22;58633;49.470;11.004;2024-03-06T04:08:50;9.80;76.20
6824;DHT22;58633;49.470;11.004;2024-03-06T04:11:16;9.80;76.30
6824;DHT22;58633;49.470;11.004;2024-03-06T04:13:42;9.80;76.20
6824;DHT22;58633;49.470;11.004;2024-03-06T04:16:07;9.60;76.10
6824;DHT22;58633;49.470;11.004;2024-03-06T04:18:33;9.80;76.40
6824;DHT22;58633;49.470;11.004;2024-03-06T04:21:04;9.70;76.30
6824;DHT22;58633;49.470;11.004;2024-03-06T04:23:29;9.70;76.40
6824;DHT22;58633;49.470;11.004;2024-03-06T04:25:55;9.60;76.50
6824;DHT22;58633;49.470;11.004;2024-03-06T04:28:21;9.70;76.70
6824;DHT22;58633;49.470;11.004;2024-03-06T04:30:47;9.60;76.90
6824;DHT22;58633;49.470;11.004;2024-03-06T04:33:12;9.80;77.10
6824;DHT22;58633;49.470;11.004;2024-03-06T04:35:40;9.80;77.10
6824;DHT22;58633;49.470;11.004;2024-03-06T04:38:06;9.80;77.30
6824;DHT22;58633;49.470;11.004;2024-03-06T04:40:32;9.70;77.20
6824;DHT22;58633;49.470;11.004;2024-03-06T04:42:57;9.70;77.10
6824;DHT22;58633;49.470;11.004;2024-03-06T04:45:23;9.90;77.30
6824;DHT22;58633;49.470;11.004;2024-03-06T04:47:49;12.20;78.50
6824;DHT22;58633;49.470;11.004;2024-03-06T04:50:14;9.60;77.00
6824;DHT22;58633;49.470;11.004;2024-03-06T04:52:41;11.10;77.50
6824;DHT22;58633;49.470;11.004;2024-03-06T04:55:07;9.70;77.10
6824;DHT22;58633;49.470;11.004;2024-03-06T04:57:36;9.80;77.20
6824;DHT22;58633;49.470;11.004;2024-03-06T05:00:01;9.80;77.30
6824;DHT22;58633;49.470;11.004;2024-03-06T05:02:31;9.80;77.30
6824;DHT22;58633;49.470;11.004;2024-03-06T05:04:59;9.80;77.10
6824;DHT22;58633;49.470;11.004;2024-03-06T05:07:27;9.70;77.30
6824;DHT22;58633;49.470;11.004;2024-03-06T05:09:52;9.60;77.40
6824;DHT22;58633;49.470;11.004;2024-03-06T05:12:18;9.60;77.50
6824;DHT22;58633;49.470;11.004;2024-03-06T05:14:43;9.70;77.60
6824;DHT22;58633;49.470;11.004;2024-03-06T05:17:09;9.60;77.70
6824;DHT22;58633;49.470;11.004;2024-03-06T05:19:36;12.00;79.00
6824;DHT22;58633;49.470;11.004;2024-03-06T05:22:01;9.70;77.80
6824;DHT22;58633;49.470;11.004;2024-03-06T05:24:27;9.60;78.00
6824;DHT22;58633;49.470;11.004;2024-03-06T05:26:52;9.60;78.50
6824;DHT22;58633;49.470;11.004;2024-03-06T05:29:18;12.00;79.80
6824;DHT22;58633;49.470;11.004;2024-03-06T05:31:43;9.60;78.70
6824;DHT22;58633;49.470;11.004;2024-03-06T05:34:09;10.20;78.70
6824;DHT22;58633;49.470;11.004;2024-03-06T05:36:35;11.50;79.70
6824;DHT22;58633;49.470;11.004;2024-03-06T05:39:01;9.70;79.20
6824;DHT22;58633;49.470;11.004;2024-03-06T05:41:27;13.40;82.00
6824;DHT22;58633;49.470;11.004;2024-03-06T05:43:53;9.80;79.30
6824;DHT22;58633;49.470;11.004;2024-03-06T05:46:18;10.80;79.20
6824;DHT22;58633;49.470;11.004;2024-03-06T05:48:45;9.40;78.90
6824;DHT22;58633;49.470;11.004;2024-03-06T05:51:10;11.70;80.20
6824;DHT22;58633;49.470;11.004;2024-03-06T05:53:37;9.50;79.30
6824;DHT22;58633;49.470;11.004;2024-03-06T05:56:05;9.60;80.10
6824;DHT22;58633;49.470;11.004;2024-03-06T05:58:31;9.60;79.40
6824;DHT22;58633;49.470;11.004;2024-03-06T06:00:56;9.60;79.70
6824;DHT22;58633;49.470;11.004;2024-03-06T06:03:22;9.70;80.00
6824;DHT22;58633;49.470;11.004;2024-03-06T06:05:48;12.10;80.90
6824;DHT22;58633;49.470;11.004;2024-03-06T06:08:13;11.90;80.90
6824;DHT22;58633;49.470;11.004;2024-03-06T06:10:39;9.40;79.60
6824;DHT22;58633;49.470;11.004;2024-03-06T06:13:04;9.60;80.00
6824;DHT22;58633;49.470;11.004;2024-03-06T06:15:30;9.70;80.00
6824;DHT22;58633;49.470;11.004;2024-03-06T06:17:56;9.60;80.00
6824;DHT22;58633;49.470;11.004;2024-03-06T06:20:21;9.70;80.10
6824;DHT22;58633;49.470;11.004;2024-03-06T06:22:47;9.70;80.30
6824;DHT22;58633;49.470;11.004;2024-03-06T06:25:13;9.70;80.20
6824;DHT22;58633;49.470;11.004;2024-03-06T06:27:38;9.70;80.50
6824;DHT22;58633;49.470;11.004;2024-03-06T06:30:04;9.60;80.40
6824;DHT22;58633;49.470;11.004;2024-03-06T06:32:31;9.70;80.60
6824;DHT22;58633;49.470;11.004;2024-03-06T06:34:56;9.60;80.60
6824;DHT22;58633;49.470;11.004;2024-03-06T06:37:23;9.80;80.90
6824;DHT22;58633;49.470;11.004;2024-03-06T06:39:48;9.70;80.80
6824;DHT22;58633;49.470;11.004;2024-03-06T06:42:14;9.70;80.90
6824;DHT22;58633;49.470;11.004;2024-03-06T06:44:40;9.70;80.80
6824;DHT22;58633;49.470;11.004;2024-03-06T06:47:07;9.70;81.00
6824;DHT22;58633;49.470;11.004;2024-03-06T06:49:32;12.40;82.70
6824;DHT22;58633;49.470;11.004;2024-03-06T06:51:59;9.80;81.20
6824;DHT22;58633;49.470;11.004;2024-03-06T06:54:24;9.80;81.20
6824;DHT22;58633;49.470;11.004;2024-03-06T06:56:50;9.80;81.40
6824;DHT22;58633;49.470;11.004;2024-03-06T06:59:15;9.60;81.30
6824;DHT22;58633;49.470;11.004;2024-03-06T07:01:41;9.60;81.50
6824;DHT22;58633;49.470;11.004;2024-03-06T07:04:07;9.80;81.90
6824;DHT22;58633;49.470;11.004;2024-03-06T07:06:32;9.70;82.10
6824;DHT22;58633;49.470;11.004;2024-03-06T07:08:58;9.70;82.00
6824;DHT22;58633;49.470;11.004;2024-03-06T07:11:23;11.70;83.10
6824;DHT22;58633;49.470;11.004;2024-03-06T07:13:49;9.90;83.20
6824;DHT22;58633;49.470;11.004;2024-03-06T07:16:15;10.50;82.10
6824;DHT22;58633;49.470;11.004;2024-03-06T07:18:40;11.90;83.60
6824;DHT22;58633;49.470;11.004;2024-03-06T07:21:06;10.20;82.10
6824;DHT22;58633;49.470;11.004;2024-03-06T07:23:31;10.80;82.80
6824;DHT22;58633;49.470;11.004;2024-03-06T07:25:57;9.90;83.20
6824;DHT22;58633;49.470;11.004;2024-03-06T07:28:24;9.50;83.00
6824;DHT22;58633;49.470;11.004;2024-03-06T07:30:51;9.40;83.10
6824;DHT22;58633;49.470;11.004;2024-03-06T07:33:16;9.70;83.10
6824;DHT22;58633;49.470;11.004;2024-03-06T07:35:42;9.50;83.20
6824;DHT22;58633;49.470;11.004;2024-03-06T07:38:07;10.00;82.50
6824;DHT22;58633;49.470;11.004;2024-03-06T07:40:33;9.90;83.50
6824;DHT22;58633;49.470;11.004;2024-03-06T07:42:59;10.00;82.60
6824;DHT22;58633;49.470;11.004;2024-03-06T07:45:25;10.10;82.60
6824;DHT22;58633;49.470;11.004;2024-03-06T07:47:51;10.00;82.70
6824;DHT22;58633;49.470;11.004;2024-03-06T07:50:17;10.20;82.90
6824;DHT22;58633;49.470;11.004;2024-03-06T07:52:48;10.00;82.50
6824;DHT22;58633;49.470;11.004;2024-03-06T07:55:14;10.10;83.50
6824;DHT22;58633;49.470;11.004;2024-03-06T07:57:40;12.20;84.70
6824;DHT22;58633;49.470;11.004;2024-03-06T08:00:06;10.10;82.50
6824;DHT22;58633;49.470;11.004;2024-03-06T08:02:40;10.00;82.40
6824;DHT22;58633;49.470;11.004;2024-03-06T08:05:11;12.70;84.90
6824;DHT22;58633;49.470;11.004;2024-03-06T08:07:41;10.30;82.20
6824;DHT22;58633;49.470;11.004;2024-03-06T08:10:08;10.10;82.00
6824;DHT22;58633;49.470;11.004;2024-03-06T08:12:35;10.10;81.70
6824;DHT22;58633;49.470;11.004;2024-03-06T08:15:00;10.10;81.40
6824;DHT22;58633;49.470;11.004;2024-03-06T08:17:27;10.00;80.90
6824;DHT22;58633;49.470;11.004;2024-03-06T08:19:52;10.30;80.90
6824;DHT22;58633;49.470;11.004;2024-03-06T08:22:18;10.10;80.60
6824;DHT22;58633;49.470;11.004;2024-03-06T08:24:43;10.10;80.20
6824;DHT22;58633;49.470;11.004;2024-03-06T08:27:09;10.10;80.00
6824;DHT22;58633;49.470;11.004;2024-03-06T08:29:34;10.10;79.80
6824;DHT22;58633;49.470;11.004;2024-03-06T08:32:00;10.30;79.90
6824;DHT22;58633;49.470;11.004;2024-03-06T08:34:26;10.20;79.30
6824;DHT22;58633;49.470;11.004;2024-03-06T08:36:52;11.30;80.10
6824;DHT22;58633;49.470;11.004;2024-03-06T08:39:18;11.80;80.30
6824;DHT22;58633;49.470;11.004;2024-03-06T08:41:44;10.90;79.10
6824;DHT22;58633;49.470;11.004;2024-03-06T08:44:09;10.50;78.70
6824;DHT22;58633;49.470;11.004;2024-03-06T08:46:35;10.30;78.20
6824;DHT22;58633;49.470;11.004;2024-03-06T08:49:00;10.40;78.10
6824;DHT22;58633;49.470;11.004;2024-03-06T08:51:27;10.40;77.60
6824;DHT22;58633;49.470;11.004;2024-03-06T08:53:52;10.40;77.00
6824;DHT22;58633;49.470;11.004;2024-03-06T08:56:17;10.40;76.70
6824;DHT22;58633;49.470;11.004;2024-03-06T08:58:44;12.60;78.60
6824;DHT22;58633;49.470;11.004;2024-03-06T09:01:09;11.60;77.10
6824;DHT22;58633;49.470;11.004;2024-03-06T09:03:35;10.50;75.30
6824;DHT22;58633;49.470;11.004;2024-03-06T09:06:01;10.50;75.10
6824;DHT22;58633;49.470;11.004;2024-03-06T09:08:28;10.40;74.60
6824;DHT22;58633;49.470;11.004;2024-03-06T09:10:53;10.50;74.50
6824;DHT22;58633;49.470;11.004;2024-03-06T09:13:19;10.60;74.10
6824;DHT22;58633;49.470;11.004;2024-03-06T09:15:45;10.60;73.90
6824;DHT22;58633;49.470;11.004;2024-03-06T09:18:10;10.60;73.50
6824;DHT22;58633;49.470;11.004;2024-03-06T09:20:36;10.60;73.40
6824;DHT22;58633;49.470;11.004;2024-03-06T09:23:01;10.50;73.10
6824;DHT22;58633;49.470;11.004;2024-03-06T09:25:28;10.70;73.10
6824;DHT22;58633;49.470;11.004;2024-03-06T09:27:54;10.90;73.30
6824;DHT22;58633;49.470;11.004;2024-03-06T09:30:19;10.60;72.80
6824;DHT22;58633;49.470;11.004;2024-03-06T09:32:45;10.50;72.30
6824;DHT22;58633;49.470;11.004;2024-03-06T09:35:11;11.60;73.50
6824;DHT22;58633;49.470;11.004;2024-03-06T09:37:37;11.60;73.50
6824;DHT22;58633;49.470;11.004;2024-03-06T09:40:03;10.80;72.50
6824;DHT22;58633;49.470;11.004;2024-03-06T09:42:28;10.70;72.20
6824;DHT22;58633;49.470;11.004;2024-03-06T09:44:55;12.10;73.40
6824;DHT22;58633;49.470;11.004;2024-03-06T09:47:25;10.90;71.90
6824;DHT22;58633;49.470;11.004;2024-03-06T09:49:55;10.80;71.50
6824;DHT22;58633;49.470;11.004;2024-03-06T09:52:24;11.00;71.60
6824;DHT22;58633;49.470;11.004;2024-03-06T09:54:54;11.10;71.60
6824;DHT22;58633;49.470;11.004;2024-03-06T09:57:20;11.10;71.70
6824;DHT22;58633;49.470;11.004;2024-03-06T09:59:46;11.10;71.70
6824;DHT22;58633;49.470;11.004;2024-03-06T10:04:50;11.10;71.00
6824;DHT22;58633;49.470;11.004;2024-03-06T10:07:16;11.20;71.10
6824;DHT22;58633;49.470;11.004;2024-03-06T10:09:42;11.20;70.80
6824;DHT22;58633;49.470;11.004;2024-03-06T10:12:12;11.30;70.50
6824;DHT22;58633;49.470;11.004;2024-03-06T10:14:37;11.40;70.10
6824;DHT22;58633;49.470;11.004;2024-03-06T10:17:03;11.30;69.70
6824;DHT22;58633;49.470;11.004;2024-03-06T10:19:29;11.40;69.50
6824;DHT22;58633;49.470;11.004;2024-03-06T10:21:56;11.40;69.30
6824;DHT22;58633;49.470;11.004;2024-03-06T10:24:29;11.30;68.90
6824;DHT22;58633;49.470;11.004;2024-03-06T10:26:56;11.40;68.70
6824;DHT22;58633;49.470;11.004;2024-03-06T10:29:24;11.30;68.60
6824;DHT22;58633;49.470;11.004;2024-03-06T10:31:57;13.10;70.50
6824;DHT22;58633;49.470;11.004;2024-03-06T10:34:28;11.40;68.40
6824;DHT22;58633;49.470;11.004;2024-03-06T10:36:55;11.40;68.10
6824;DHT22;58633;49.470;11.004;2024-03-06T10:39:22;11.60;68.30
6824;DHT22;58633;49.470;11.004;2024-03-06T10:41:57;11.60;68.20
6824;DHT22;58633;49.470;11.004;2024-03-06T10:44:26;11.70;68.10
6824;DHT22;58633;49.470;11.004;2024-03-06T10:47:00;11.60;68.00
6824;DHT22;58633;49.470;11.004;2024-03-06T10:49:27;13.20;69.40
6824;DHT22;58633;49.470;11.004;2024-03-06T10:54:28;11.80;67.40
6824;DHT22;58633;49.470;11.004;2024-03-06T10:56:55;11.80;66.70
6824;DHT22;58633;49.470;11.004;2024-03-06T10:59:24;14.40;68.80
6824;DHT22;58633;49.470;11.004;2024-03-06T11:01:53;12.00;66.00
6824;DHT22;58633;49.470;11.004;2024-03-06T11:04:20;11.90;65.70
6824;DHT22;58633;49.470;11.004;2024-03-06T11:06:45;11.90;65.60
6824;DHT22;58633;49.470;11.004;2024-03-06T11:09:11;11.90;65.40
6824;DHT22;58633;49.470;11.004;2024-03-06T11:11:53;11.50;65.00
6824;DHT22;58633;49.470;11.004;2024-03-06T11:14:23;12.50;65.50
6824;DHT22;58633;49.470;11.004;2024-03-06T11:17:12;12.00;64.90
6824;DHT22;58633;49.470;11.004;2024-03-06T11:28:18;11.90;64.70
6824;DHT22;58633;49.470;11.004;2024-03-06T11:31:01;11.90;64.40
6824;DHT22;58633;49.470;11.004;2024-03-06T11:33:43;11.90;64.00
6824;DHT22;58633;49.470;11.004;2024-03-06T11:36:26;12.10;64.00
6824;DHT22;58633;49.470;11.004;2024-03-06T11:41:37;11.80;63.80
6824;DHT22;58633;49.470;11.004;2024-03-06T11:44:16;11.90;63.50
6824;DHT22;58633;49.470;11.004;2024-03-06T11:46:46;11.90;63.30
6824;DHT22;58633;49.470;11.004;2024-03-06T11:49:21;13.50;64.80
6824;DHT22;58633;49.470;11.004;2024-03-06T11:51:48;12.10;63.30
6824;DHT22;58633;49.470;11.004;2024-03-06T11:54:14;11.90;62.90
6824;DHT22;58633;49.470;11.004;2024-03-06T11:56:40;12.00;62.70
6824;DHT22;58633;49.470;11.004;2024-03-06T11:59:06;12.00;62.40
6824;DHT22;58633;49.470;11.004;2024-03-06T12:01:35;11.60;62.10
6824;DHT22;58633;49.470;11.004;2024-03-06T12:04:02;14.80;65.30
6824;DHT22;58633;49.470;11.004;2024-03-06T12:06:28;11.90;62.40
6824;DHT22;58633;49.470;11.004;2024-03-06T12:08:54;12.10;62.40
6824;DHT22;58633;49.470;11.004;2024-03-06T12:11:20;13.00;63.00
6824;DHT22;58633;49.470;11.004;2024-03-06T12:13:48;11.90;61.60
6824;DHT22;58633;49.470;11.004;2024-03-06T12:16:14;12.00;61.60
6824;DHT22;58633;49.470;11.004;2024-03-06T12:18:40;11.90;61.50
6824;DHT22;58633;49.470;11.004;2024-03-06T12:21:05;12.10;61.80
6824;DHT22;58633;49.470;11.004;2024-03-06T12:23:31;12.00;61.90
6824;DHT22;58633;49.470;11.004;2024-03-06T12:26:09;11.90;61.60
6824;DHT22;58633;49.470;11.004;2024-03-06T12:28:37;12.10;61.50
6824;DHT22;58633;49.470;11.004;2024-03-06T12:31:06;12.00;61.50
6824;DHT22;58633;49.470;11.004;2024-03-06T12:33:33;12.00;61.60
6824;DHT22;58633;49.470;11.004;2024-03-06T12:36:08;12.10;61.50
6824;DHT22;58633;49.470;11.004;2024-03-06T12:38:37;12.10;61.50
6824;DHT22;58633;49.470;11.004;2024-03-06T12:41:03;12.10;61.50
6824;DHT22;58633;49.470;11.004;2024-03-06T12:43:29;12.20;61.20
6824;DHT22;58633;49.470;11.004;2024-03-06T12:45:55;13.30;62.20
6824;DHT22;58633;49.470;11.004;2024-03-06T12:48:23;12.00;60.70
6824;DHT22;58633;49.470;11.004;2024-03-06T12:50:48;13.70;62.20
6824;DHT22;58633;49.470;11.004;2024-03-06T12:53:23;13.40;61.90
6824;DHT22;58633;49.470;11.004;2024-03-06T12:55:48;12.10;60.90
6824;DHT22;58633;49.470;11.004;2024-03-06T12:58:14;12.30;61.30
6824;DHT22;58633;49.470;11.004;2024-03-06T13:00:40;13.30;62.00
6824;DHT22;58633;49.470;11.004;2024-03-06T13:03:06;12.20;60.60
6824;DHT22;58633;49.470;11.004;2024-03-06T13:05:32;14.00;62.60
6824;DHT22;58633;49.470;11.004;2024-03-06T13:07:58;12.20;60.50
6824;DHT22;58633;49.470;11.004;2024-03-06T13:10:27;12.30;60.60
6824;DHT22;58633;49.470;11.004;2024-03-06T13:12:52;13.50;61.90
6824;DHT22;58633;49.470;11.004;2024-03-06T13:15:18;12.30;60.60
6824;DHT22;58633;49.470;11.004;2024-03-06T13:17:43;12.40;60.80
6824;DHT22;58633;49.470;11.004;2024-03-06T13:20:09;12.50;60.40
6824;DHT22;58633;49.470;11.004;2024-03-06T13:22:37;12.40;60.20
6824;DHT22;58633;49.470;11.004;2024-03-06T13:25:02;12.40;60.00
6824;DHT22;58633;49.470;11.004;2024-03-06T13:27:29;12.60;59.80
6824;DHT22;58633;49.470;11.004;2024-03-06T13:29:54;12.50;59.60
6824;DHT22;58633;49.470;11.004;2024-03-06T13:32:20;12.60;59.60
6824;DHT22;58633;49.470;11.004;2024-03-06T13:34:45;14.10;60.80
6824;DHT22;58633;49.470;11.004;2024-03-06T13:37:11;12.60;59.00
6824;DHT22;58633;49.470;11.004;2024-03-06T13:39:37;12.70;59.00
6824;DHT22;58633;49.470;11.004;2024-03-06T13:42:04;12.70;59.10
6824;DHT22;58633;49.470;11.004;2024-03-06T13:44:31;12.60;59.00
6824;DHT22;58633;49.470;11.004;2024-03-06T13:46:57;12.70;59.20
6824;DHT22;58633;49.470;11.004;2024-03-06T13:49:40;12.90;59.10
6824;DHT22;58633;49.470;11.004;2024-03-06T13:52:08;12.70;58.60
6824;DHT22;58633;49.470;11.004;2024-03-06T13:54:39;12.80;58.70
6824;DHT22;58633;49.470;11.004;2024-03-06T13:57:06;12.90;58.90
6824;DHT22;58633;49.470;11.004;2024-03-06T13:59:33;13.70;59.40
6824;DHT22;58633;49.470;11.004;2024-03-06T14:01:59;12.90;58.40
6824;DHT22;58633;49.470;11.004;2024-03-06T14:04:25;14.70;59.70
6824;DHT22;58633;49.470;11.004;2024-03-06T14:06:51;13.40;58.50
6824;DHT22;58633;49.470;11.004;2024-03-06T14:09:16;12.80;58.00
6824;DHT22;58633;49.470;11.004;2024-03-06T14:11:42;12.80;57.80
6824;DHT22;58633;49.470;11.004;2024-03-06T14:14:08;12.90;57.90
6824;DHT22;58633;49.470;11.004;2024-03-06T14:16:34;12.80;57.90
6824;DHT22;58633;49.470;11.004;2024-03-06T14:19:00;14.20;59.20
6824;DHT22;58633;49.470;11.004;2024-03-06T14:21:25;13.10;57.90
6824;DHT22;58633;49.470;11.004;2024-03-06T14:23:51;14.80;59.30
6824;DHT22;58633;49.470;11.004;2024-03-06T14:26:16;12.70;57.50
6824;DHT22;58633;49.470;11.004;2024-03-06T14:28:42;12.70;57.40
6824;DHT22;58633;49.470;11.004;2024-03-06T14:31:08;12.90;57.50
6824;DHT22;58633;49.470;11.004;2024-03-06T14:33:37;13.00;57.60
6824;DHT22;58633;49.470;11.004;2024-03-06T14:36:03;14.90;59.20
6824;DHT22;58633;49.470;11.004;2024-03-06T14:38:29;12.90;57.60
6824;DHT22;58633;49.470;11.004;2024-03-06T14:40:54;12.80;57.60
6824;DHT22;58633;49.470;11.004;2024-03-06T14:43:20;12.80;57.60
6824;DHT22;58633;49.470;11.004;2024-03-06T14:45:46;12.80;57.70
6824;DHT22;58633;49.470;11.004;2024-03-06T14:48:11;12.80;57.70
6824;DHT22;58633;49.470;11.004;2024-03-06T14:50:37;13.40;58.20
6824;DHT22;58633;49.470;11.004;2024-03-06T14:53:02;16.00;60.50
6824;DHT22;58633;49.470;11.004;2024-03-06T14:55:28;12.80;57.70
6824;DHT22;58633;49.470;11.004;2024-03-06T14:57:54;12.80;57.80
6824;DHT22;58633;49.470;11.004;2024-03-06T15:00:19;13.20;58.10
6824;DHT22;58633;49.470;11.004;2024-03-06T15:02:48;13.60;58.40
6824;DHT22;58633;49.470;11.004;2024-03-06T15:05:13;12.70;58.10
6824;DHT22;58633;49.470;11.004;2024-03-06T15:07:39;12.80;57.90
6824;DHT22;58633;49.470;11.004;2024-03-06T15:10:06;12.80;57.90
6824;DHT22;58633;49.470;11.004;2024-03-06T15:12:33;12.90;58.00
6824;DHT22;58633;49.470;11.004;2024-03-06T15:14:59;12.90;58.00
6824;DHT22;58633;49.470;11.004;2024-03-06T15:17:25;14.10;59.00
6824;DHT22;58633;49.470;11.004;2024-03-06T15:19:51;12.90;58.00
6824;DHT22;58633;49.470;11.004;2024-03-06T15:22:17;12.90;58.10
6824;DHT22;58633;49.470;11.004;2024-03-06T15:24:43;12.80;58.10
6824;DHT22;58633;49.470;11.004;2024-03-06T15:27:11;12.70;58.00
6824;DHT22;58633;49.470;11.004;2024-03-06T15:29:37;12.80;58.10
6824;DHT22;58633;49.470;11.004;2024-03-06T15:32:03;13.00;58.30
6824;DHT22;58633;49.470;11.004;2024-03-06T15:34:29;12.60;57.90
6824;DHT22;58633;49.470;11.004;2024-03-06T15:36:54;12.90;58.10
6824;DHT22;58633;49.470;11.004;2024-03-06T15:39:20;12.80;58.00
6824;DHT22;58633;49.470;11.004;2024-03-06T15:41:46;13.90;59.00
6824;DHT22;58633;49.470;11.004;2024-03-06T15:44:12;12.60;57.80
6824;DHT22;58633;49.470;11.004;2024-03-06T15:46:38;12.80;58.00